Terminal Aerodrome Forecast
Issued by NWS

Home | Current Version | Previous Version | Graphics & Text | Print | Product List | Glossary On
Versions: 1 2 3 4 5 6 7 8 9 10 11 12 13 14 15 16 17 18
000
FTUS43 KMPX 191500 AAB
TAFRNH
TAF AMD
KRNH 191544Z 1916/2012 30006KT P6SM SCT006 BKN012 OVC017
      TEMPO 1916/1918 BKN006 OVC012
     FM191800 31007KT P6SM -SHRA SCT006 BKN020 OVC035
     FM200000 36004KT 6SM BR SCT100 SCT200
     FM200600 VRB02KT 4SM BR SCT003 SCT200
     FM200800 00000KT 2SM BR SCT001
      TEMPO 2008/2012 1/2SM FG BKN001=

USA.gov is the U.S. government's official web portal to all federal, state and local government web resources and services.